createdAt,value
2018-12-14T00:00:19.522Z,93.27
2018-12-14T00:00:45.636Z,93.27
2018-12-14T00:01:11.785Z,93.37
2018-12-14T00:01:37.893Z,93.37
2018-12-14T00:02:04.013Z,93.18
2018-12-14T00:02:30.112Z,93.18
2018-12-14T00:02:56.225Z,92.61
2018-12-14T00:03:22.360Z,93.27
2018-12-14T00:03:48.475Z,93.18
2018-12-14T00:04:14.575Z,93.27
2018-12-14T00:04:40.688Z,93.27
2018-12-14T00:05:06.801Z,93.18
2018-12-14T00:05:32.898Z,92.61
2018-12-14T00:05:59.003Z,93.08
2018-12-14T00:06:25.112Z,93.27
2018-12-14T00:06:51.219Z,93.18
2018-12-14T00:07:17.323Z,93.37
2018-12-14T00:07:43.463Z,93.08
2018-12-14T00:08:09.612Z,93.18
2018-12-14T00:08:35.717Z,93.08
2018-12-14T00:09:01.826Z,93.46
2018-12-14T00:09:27.931Z,93.37
2018-12-14T00:09:54.057Z,93.18
2018-12-14T00:10:20.164Z,92.61
2018-12-14T00:10:46.263Z,92.9
2018-12-14T00:11:12.365Z,92.61
2018-12-14T00:11:38.472Z,92.61
2018-12-14T00:12:05.562Z,92.61
2018-12-14T00:12:31.672Z,93.37
2018-12-14T00:12:57.778Z,93.18
2018-12-14T00:13:23.872Z,93.37
2018-12-14T00:13:50.001Z,93.37
2018-12-14T00:14:16.107Z,93.65
2018-12-14T00:14:42.209Z,93.46
2018-12-14T00:15:08.313Z,93.75
2018-12-14T00:15:34.411Z,93.27
2018-12-14T00:16:00.517Z,93.27
2018-12-14T00:16:26.627Z,93.65
2018-12-14T00:16:52.730Z,93.7
2018-12-14T00:17:18.835Z,93.75
2018-12-14T00:17:44.935Z,93.42
2018-12-14T00:18:11.042Z,93.7
2018-12-14T00:18:37.143Z,93.65
2018-12-14T00:19:03.258Z,93.65
2018-12-14T00:19:29.357Z,93.99
2018-12-14T00:19:55.461Z,94.37
2018-12-14T00:20:21.567Z,94.32
2018-12-14T00:20:47.673Z,94.04
2018-12-14T00:21:13.774Z,94.08
2018-12-14T00:21:39.882Z,94.23
2018-12-14T00:22:05.997Z,93.99
2018-12-14T00:22:32.100Z,94.04
2018-12-14T00:22:58.199Z,94.18
2018-12-14T00:23:24.307Z,93.99
2018-12-14T00:23:50.416Z,93.7
2018-12-14T00:24:16.517Z,94.08
2018-12-14T00:24:42.626Z,94.37
2018-12-14T00:25:08.725Z,94.18
2018-12-14T00:25:34.860Z,94.27
2018-12-14T00:26:00.999Z,94.18
2018-12-14T00:26:27.093Z,93.99
2018-12-14T00:26:53.194Z,94.18
2018-12-14T00:27:19.303Z,93.89
2018-12-14T00:27:45.422Z,94.18
2018-12-14T00:28:11.522Z,94.18
2018-12-14T00:28:37.629Z,94.18
2018-12-14T00:29:03.731Z,93.89
2018-12-14T00:29:29.874Z,93.99
2018-12-14T00:29:55.974Z,93.8
2018-12-14T00:30:22.082Z,94.37
2018-12-14T00:30:48.188Z,94.27
2018-12-14T00:31:14.321Z,94.08
2018-12-14T00:31:40.422Z,94.74
2018-12-14T00:32:06.558Z,94.56
2018-12-14T00:32:32.656Z,94.65
2018-12-14T00:32:58.763Z,94.74
2018-12-14T00:33:24.860Z,94.74
2018-12-14T00:33:50.964Z,95.03
2018-12-14T00:34:17.070Z,94.84
2018-12-14T00:34:43.172Z,94.84
2018-12-14T00:35:09.282Z,94.93
2018-12-14T00:35:35.380Z,94.74
2018-12-14T00:36:01.484Z,95.03
2018-12-14T00:36:27.613Z,95.31
2018-12-14T00:36:53.742Z,94.93
2018-12-14T00:37:19.872Z,95.31
2018-12-14T00:37:45.981Z,95.31
2018-12-14T00:38:12.089Z,95.69
2018-12-14T00:38:38.190Z,95.22
2018-12-14T00:39:04.292Z,95.31
2018-12-14T00:39:30.400Z,95.22
2018-12-14T00:39:56.507Z,95.41
2018-12-14T00:40:22.613Z,95.41
2018-12-14T00:40:48.740Z,95.41
2018-12-14T00:41:14.869Z,95.5
2018-12-14T00:41:41.010Z,95.41
2018-12-14T00:42:08.099Z,95.5
2018-12-14T00:42:34.203Z,95.5
2018-12-14T00:43:00.311Z,95.5
2018-12-14T00:43:26.416Z,95.12
2018-12-14T00:43:52.517Z,95.31
2018-12-14T00:44:18.623Z,95.41
2018-12-14T00:44:44.726Z,95.41
2018-12-14T00:45:10.830Z,95.69
2018-12-14T00:45:36.961Z,95.79
2018-12-14T00:46:03.061Z,95.79
2018-12-14T00:46:29.174Z,95.79
2018-12-14T00:46:55.277Z,95.6
2018-12-14T00:47:21.387Z,96.07
2018-12-14T00:47:47.491Z,95.69
2018-12-14T00:48:13.593Z,95.6
2018-12-14T00:48:39.710Z,95.6
2018-12-14T00:49:05.806Z,95.98
2018-12-14T00:49:31.910Z,95.88
2018-12-14T00:49:58.044Z,95.88
2018-12-14T00:50:24.152Z,95.69
2018-12-14T00:50:50.277Z,95.79
2018-12-14T00:51:16.387Z,95.6
2018-12-14T00:51:42.488Z,95.79
2018-12-14T00:52:08.598Z,95.69
2018-12-14T00:52:34.718Z,95.5
2018-12-14T00:53:00.823Z,95.79
2018-12-14T00:53:26.929Z,95.79
2018-12-14T00:53:53.035Z,95.5
2018-12-14T00:54:19.143Z,95.69
2018-12-14T00:54:45.242Z,96.07
2018-12-14T00:55:11.349Z,95.69
2018-12-14T00:55:37.449Z,95.69
2018-12-14T00:56:03.554Z,95.6
2018-12-14T00:56:29.654Z,95.6
2018-12-14T00:56:55.765Z,95.88
2018-12-14T00:57:21.868Z,95.88
2018-12-14T00:57:47.972Z,95.6
2018-12-14T00:58:14.081Z,95.79
2018-12-14T00:58:40.181Z,95.88
2018-12-14T00:59:06.314Z,95.79
2018-12-14T00:59:32.424Z,95.88
2018-12-14T00:59:58.521Z,95.88
2018-12-14T01:00:24.626Z,96.07
2018-12-14T01:00:50.731Z,95.79
2018-12-14T01:01:16.835Z,95.79
2018-12-14T01:01:42.939Z,95.69
2018-12-14T01:02:09.048Z,96.45
2018-12-14T01:02:35.153Z,96.26
2018-12-14T01:03:01.253Z,96.26
2018-12-14T01:03:27.364Z,96.26
2018-12-14T01:03:53.466Z,97.02
2018-12-14T01:04:19.594Z,97.4
2018-12-14T01:04:45.698Z,96.07
2018-12-14T01:05:11.799Z,96.45
2018-12-14T01:05:37.905Z,96.73
2018-12-14T01:06:04.011Z,96.45
2018-12-14T01:06:30.116Z,95.79
2018-12-14T01:06:56.224Z,96.26
2018-12-14T01:07:22.326Z,96.07
2018-12-14T01:07:48.457Z,96.36
2018-12-14T01:08:14.563Z,96.07
2018-12-14T01:08:40.679Z,96.73
2018-12-14T01:09:06.782Z,96.73
2018-12-14T01:09:32.886Z,96.55
2018-12-14T01:09:59.029Z,97.21
2018-12-14T01:10:25.128Z,97.02
2018-12-14T01:10:51.235Z,96.83
2018-12-14T01:11:17.339Z,96.64
2018-12-14T01:11:43.445Z,96.26
2018-12-14T01:12:10.566Z,95.79
2018-12-14T01:12:36.680Z,96.17
2018-12-14T01:13:02.809Z,96.26
2018-12-14T01:13:28.940Z,96.17
2018-12-14T01:13:55.046Z,96.36
2018-12-14T01:14:21.151Z,96.17
2018-12-14T01:14:47.282Z,95.79
2018-12-14T01:15:13.388Z,96.55
2018-12-14T01:15:39.485Z,96.64
2018-12-14T01:16:05.651Z,97.4
2018-12-14T01:16:31.782Z,97.3
2018-12-14T01:16:57.887Z,97.21
2018-12-14T01:17:23.990Z,96.73
2018-12-14T01:17:50.092Z,96.64
2018-12-14T01:18:16.205Z,96.07
2018-12-14T01:18:42.300Z,96.17
2018-12-14T01:19:08.410Z,96.26
2018-12-14T01:19:34.512Z,95.69
2018-12-14T01:20:00.639Z,95.6
2018-12-14T01:20:26.739Z,95.69
2018-12-14T01:20:52.848Z,95.31
2018-12-14T01:21:18.982Z,95.98
2018-12-14T01:21:45.084Z,95.79
2018-12-14T01:22:11.219Z,95.79
2018-12-14T01:22:37.355Z,95.69
2018-12-14T01:23:03.517Z,95.88
2018-12-14T01:23:29.646Z,95.69
2018-12-14T01:23:55.758Z,95.79
2018-12-14T01:24:21.890Z,95.88
2018-12-14T01:24:48.016Z,96.45
2018-12-14T01:25:14.112Z,95.69
2018-12-14T01:25:40.226Z,95.69
2018-12-14T01:26:06.331Z,95.79
2018-12-14T01:26:32.440Z,96.36
2018-12-14T01:26:58.580Z,96.36
2018-12-14T01:27:24.710Z,96.17
2018-12-14T01:27:50.815Z,96.36
2018-12-14T01:28:16.918Z,96.17
2018-12-14T01:28:43.043Z,96.55
2018-12-14T01:29:09.149Z,95.88
2018-12-14T01:29:35.252Z,95.79
2018-12-14T01:30:01.359Z,95.5
2018-12-14T01:30:27.459Z,95.69
2018-12-14T01:30:53.575Z,95.69
2018-12-14T01:31:19.700Z,95.79
2018-12-14T01:31:45.833Z,95.98
2018-12-14T01:32:11.944Z,95.88
2018-12-14T01:32:38.034Z,95.69
2018-12-14T01:33:04.142Z,95.69
2018-12-14T01:33:30.274Z,95.98
2018-12-14T01:33:56.377Z,95.79
2018-12-14T01:34:22.508Z,95.69
2018-12-14T01:34:48.614Z,95.69
2018-12-14T01:35:14.719Z,96.26
2018-12-14T01:35:40.820Z,95.79
2018-12-14T01:36:06.926Z,96.17
2018-12-14T01:36:33.030Z,96.45
2018-12-14T01:36:59.188Z,96.73
2018-12-14T01:37:25.293Z,96.45
2018-12-14T01:37:51.392Z,96.17
2018-12-14T01:38:17.498Z,95.79
2018-12-14T01:38:43.599Z,96.07
2018-12-14T01:39:09.701Z,96.45
2018-12-14T01:39:35.814Z,96.26
2018-12-14T01:40:01.921Z,95.79
2018-12-14T01:40:28.026Z,95.88
2018-12-14T01:40:54.134Z,96.26
2018-12-14T01:41:20.236Z,96.45
2018-12-14T01:41:46.341Z,96.17
2018-12-14T01:42:12.496Z,96.17
2018-12-14T01:42:38.604Z,95.69
2018-12-14T01:43:04.708Z,95.41
2018-12-14T01:43:30.810Z,95.69
2018-12-14T01:43:56.915Z,95.41
2018-12-14T01:44:23.015Z,95.41
2018-12-14T01:44:49.121Z,95.31
2018-12-14T01:45:15.257Z,95.41
2018-12-14T01:45:41.364Z,95.22
2018-12-14T01:46:07.479Z,96.07
2018-12-14T01:46:33.590Z,94.56
2018-12-14T01:46:59.695Z,94.84
2018-12-14T01:47:25.830Z,95.03
2018-12-14T01:47:51.932Z,94.93
2018-12-14T01:48:18.943Z,94.93
2018-12-14T01:48:45.053Z,95.12
2018-12-14T01:49:11.153Z,94.74
2018-12-14T01:49:37.253Z,94.93
2018-12-14T01:50:03.360Z,94.84
2018-12-14T01:50:29.472Z,95.5
2018-12-14T01:50:55.571Z,95.22
2018-12-14T01:51:21.678Z,95.03
2018-12-14T01:51:47.809Z,95.5
2018-12-14T01:52:13.912Z,95.69
2018-12-14T01:52:40.022Z,95.5
2018-12-14T01:53:06.119Z,95.88
2018-12-14T01:53:32.230Z,95.22
2018-12-14T01:53:58.371Z,95.31
2018-12-14T01:54:24.479Z,95.12
2018-12-14T01:54:50.574Z,95.22
2018-12-14T01:55:16.685Z,95.31
2018-12-14T01:55:42.790Z,95.12
2018-12-14T01:56:08.895Z,95.31
2018-12-14T01:56:34.997Z,95.31
2018-12-14T01:57:01.101Z,95.41
2018-12-14T01:57:27.202Z,95.5
2018-12-14T01:57:53.315Z,95.5
2018-12-14T01:58:19.423Z,95.31
2018-12-14T01:58:45.549Z,95.41
2018-12-14T01:59:11.684Z,95.41
2018-12-14T01:59:37.782Z,95.12
2018-12-14T02:00:03.893Z,95.41
2018-12-14T02:00:30.010Z,95.6
2018-12-14T02:00:56.108Z,95.41
2018-12-14T02:01:22.241Z,95.6
2018-12-14T02:01:48.342Z,95.31
2018-12-14T02:02:14.443Z,94.93
2018-12-14T02:02:40.545Z,95.31
2018-12-14T02:03:06.652Z,95.41
2018-12-14T02:03:32.762Z,95.31
2018-12-14T02:03:58.871Z,95.31
2018-12-14T02:04:24.971Z,95.6
2018-12-14T02:04:51.076Z,95.69
2018-12-14T02:05:17.204Z,95.41
2018-12-14T02:05:43.311Z,95.31
2018-12-14T02:06:09.410Z,95.12
2018-12-14T02:06:35.510Z,95.22
2018-12-14T02:07:01.620Z,95.6
2018-12-14T02:07:27.721Z,95.41
2018-12-14T02:07:53.843Z,95.22
2018-12-14T02:08:19.947Z,95.69
2018-12-14T02:08:46.081Z,95.41
2018-12-14T02:09:12.223Z,95.22
2018-12-14T02:09:38.351Z,95.5
2018-12-14T02:10:04.458Z,95.98
2018-12-14T02:10:30.559Z,95.03
2018-12-14T02:10:56.701Z,94.93
2018-12-14T02:11:22.801Z,95.22
2018-12-14T02:11:48.908Z,95.12
2018-12-14T02:12:16.030Z,94.65
2018-12-14T02:12:42.134Z,94.56
2018-12-14T02:13:08.264Z,95.31
2018-12-14T02:13:34.382Z,94.93
2018-12-14T02:14:00.482Z,94.84
2018-12-14T02:14:26.585Z,94.65
2018-12-14T02:14:52.685Z,94.93
2018-12-14T02:15:18.792Z,94.84
2018-12-14T02:15:44.926Z,94.84
2018-12-14T02:16:11.060Z,95.41
2018-12-14T02:16:37.158Z,94.74
2018-12-14T02:17:03.262Z,94.84
2018-12-14T02:17:29.373Z,94.74
2018-12-14T02:17:55.474Z,94.56
2018-12-14T02:18:21.580Z,94.84
2018-12-14T02:18:47.684Z,95.22
2018-12-14T02:19:13.793Z,94.65
2018-12-14T02:19:39.898Z,95.41
2018-12-14T02:20:06.030Z,95.5
2018-12-14T02:20:32.133Z,95.03
2018-12-14T02:20:58.233Z,95.6
2018-12-14T02:21:24.334Z,95.03
2018-12-14T02:21:50.473Z,95.98
2018-12-14T02:22:16.572Z,95.22
2018-12-14T02:22:42.676Z,95.79
2018-12-14T02:23:08.780Z,95.79
2018-12-14T02:23:34.906Z,95.69
2018-12-14T02:24:01.010Z,95.6
2018-12-14T02:24:27.111Z,96.07
2018-12-14T02:24:53.251Z,95.79
2018-12-14T02:25:19.353Z,95.5
2018-12-14T02:25:45.462Z,95.98
2018-12-14T02:26:11.563Z,95.98
2018-12-14T02:26:37.669Z,95.98
2018-12-14T02:27:03.776Z,95.12
2018-12-14T02:27:29.884Z,95.22
2018-12-14T02:27:55.982Z,95.6
2018-12-14T02:28:22.114Z,95.12
2018-12-14T02:28:48.223Z,95.22
2018-12-14T02:29:14.353Z,95.31
2018-12-14T02:29:40.457Z,95.31
2018-12-14T02:30:06.558Z,95.5
2018-12-14T02:30:32.770Z,95.88
2018-12-14T02:30:58.912Z,95.6
2018-12-14T02:31:25.044Z,95.41
2018-12-14T02:31:51.151Z,95.6
2018-12-14T02:32:17.355Z,95.98
2018-12-14T02:32:43.481Z,95.6
2018-12-14T02:33:09.577Z,95.31
2018-12-14T02:33:35.709Z,95.79
2018-12-14T02:34:01.817Z,95.31
2018-12-14T02:34:27.950Z,95.5
2018-12-14T02:34:54.051Z,95.03
2018-12-14T02:35:20.159Z,95.41
2018-12-14T02:35:46.260Z,95.79
2018-12-14T02:36:12.393Z,95.79
2018-12-14T02:36:38.555Z,95.6
2018-12-14T02:37:04.688Z,95.79
2018-12-14T02:37:30.793Z,95.5
2018-12-14T02:37:56.904Z,95.88
2018-12-14T02:38:23.002Z,95.88
2018-12-14T02:38:49.107Z,95.79
2018-12-14T02:39:15.231Z,95.22
2018-12-14T02:39:41.340Z,95.6
2018-12-14T02:40:07.471Z,95.5
2018-12-14T02:40:33.608Z,95.6
2018-12-14T02:40:59.783Z,94.93
2018-12-14T02:41:25.910Z,95.6
2018-12-14T02:41:52.018Z,95.31
2018-12-14T02:42:19.467Z,95.5
2018-12-14T02:42:45.287Z,95.5
2018-12-14T02:43:11.392Z,95.79
2018-12-14T02:43:37.496Z,95.88
2018-12-14T02:44:03.603Z,95.6
2018-12-14T02:44:29.734Z,95.98
2018-12-14T02:44:55.833Z,95.79
2018-12-14T02:45:21.938Z,95.88
2018-12-14T02:45:48.072Z,96.45
2018-12-14T02:46:14.233Z,95.79
2018-12-14T02:46:40.396Z,95.6
2018-12-14T02:47:06.557Z,95.88
2018-12-14T02:47:32.664Z,95.5
2018-12-14T02:47:58.764Z,95.5
2018-12-14T02:48:24.895Z,95.6
2018-12-14T02:48:50.993Z,95.98
2018-12-14T02:49:17.130Z,95.88
2018-12-14T02:49:43.236Z,96.36
2018-12-14T02:50:09.372Z,95.98
2018-12-14T02:50:35.477Z,95.79
2018-12-14T02:51:01.586Z,95.79
2018-12-14T02:51:27.742Z,95.79
2018-12-14T02:51:53.878Z,95.6
2018-12-14T02:52:20.011Z,95.79
2018-12-14T02:52:46.112Z,95.69
2018-12-14T02:53:12.242Z,95.69
2018-12-14T02:53:38.369Z,95.88
2018-12-14T02:54:04.479Z,96.36
2018-12-14T02:54:30.608Z,96.55
2018-12-14T02:54:56.715Z,96.36
2018-12-14T02:55:22.910Z,96.26
2018-12-14T02:55:49.044Z,96.26
2018-12-14T02:56:15.144Z,96.36
2018-12-14T02:56:41.276Z,96.26
2018-12-14T02:57:07.381Z,95.69
2018-12-14T02:57:33.512Z,95.69
2018-12-14T02:57:59.684Z,95.79
2018-12-14T02:58:25.787Z,95.6
2018-12-14T02:58:51.952Z,95.69
2018-12-14T02:59:18.050Z,96.17
2018-12-14T02:59:44.200Z,95.69
2018-12-14T03:00:10.335Z,96.07
2018-12-14T03:00:36.433Z,95.79
2018-12-14T03:01:02.544Z,95.5
2018-12-14T03:01:28.670Z,96.17
2018-12-14T03:01:54.801Z,95.79
2018-12-14T03:02:20.908Z,95.69
2018-12-14T03:02:47.009Z,95.88
2018-12-14T03:03:13.141Z,95.6
2018-12-14T03:03:39.247Z,95.88
2018-12-14T03:04:05.346Z,95.79
2018-12-14T03:04:31.476Z,95.79
2018-12-14T03:04:57.581Z,96.17
2018-12-14T03:05:23.726Z,96.45
2018-12-14T03:05:49.808Z,96.07
2018-12-14T03:06:15.915Z,96.07
2018-12-14T03:06:42.021Z,95.79
2018-12-14T03:07:08.123Z,96.45
2018-12-14T03:07:34.266Z,96.45
2018-12-14T03:08:00.370Z,97.3
2018-12-14T03:08:26.538Z,97.02
2018-12-14T03:08:52.636Z,97.11
2018-12-14T03:09:18.745Z,97.21
2018-12-14T03:09:44.846Z,96.55
2018-12-14T03:10:10.985Z,96.45
2018-12-14T03:10:37.089Z,96.07
2018-12-14T03:11:03.195Z,96.45
2018-12-14T03:11:29.349Z,96.73
2018-12-14T03:11:55.486Z,97.4
2018-12-14T03:12:26.606Z,97.4
2018-12-14T03:12:48.741Z,97.21
2018-12-14T03:13:14.843Z,96.64
2018-12-14T03:13:40.979Z,96.45
2018-12-14T03:14:07.072Z,96.07
2018-12-14T03:14:33.174Z,96.45
2018-12-14T03:14:59.299Z,95.98
2018-12-14T03:15:25.433Z,95.88
2018-12-14T03:15:51.590Z,96.07
2018-12-14T03:16:17.816Z,96.73
2018-12-14T03:16:43.949Z,96.26
2018-12-14T03:17:10.087Z,96.07
2018-12-14T03:17:36.203Z,96.55
2018-12-14T03:18:02.360Z,96.64
2018-12-14T03:18:28.483Z,96.45
2018-12-14T03:18:54.591Z,96.73
2018-12-14T03:19:20.725Z,95.98
2018-12-14T03:19:46.850Z,96.26
2018-12-14T03:20:12.988Z,95.6
2018-12-14T03:20:39.113Z,95.79
2018-12-14T03:21:05.207Z,95.88
2018-12-14T03:21:31.318Z,95.88
2018-12-14T03:21:57.426Z,96.45
2018-12-14T03:22:23.556Z,96.55
2018-12-14T03:22:49.690Z,96.26
2018-12-14T03:23:15.786Z,96.17
2018-12-14T03:23:41.930Z,95.79
2018-12-14T03:24:08.056Z,96.07
2018-12-14T03:24:34.158Z,96.55
2018-12-14T03:25:00.285Z,96.17
2018-12-14T03:25:26.444Z,96.45
2018-12-14T03:25:52.542Z,96.45
2018-12-14T03:26:18.701Z,96.45
2018-12-14T03:26:44.810Z,96.17
2018-12-14T03:27:10.914Z,96.36
2018-12-14T03:27:37.049Z,96.45
2018-12-14T03:28:03.168Z,96.36
2018-12-14T03:28:29.334Z,96.45
2018-12-14T03:28:55.461Z,96.26
2018-12-14T03:29:21.571Z,96.45
2018-12-14T03:29:47.710Z,96.26
2018-12-14T03:30:13.844Z,96.55
2018-12-14T03:30:40.063Z,96.12
2018-12-14T03:31:06.258Z,96.69
2018-12-14T03:31:32.408Z,96.26
2018-12-14T03:31:58.559Z,96.59
2018-12-14T03:32:24.718Z,96.21
2018-12-14T03:32:50.939Z,97.16
2018-12-14T03:33:17.112Z,96.97
2018-12-14T03:33:43.214Z,97.06
2018-12-14T03:34:09.323Z,96.97
2018-12-14T03:34:35.429Z,96.97
2018-12-14T03:35:01.532Z,97.16
2018-12-14T03:35:27.632Z,97.06
2018-12-14T03:35:53.737Z,97.35
2018-12-14T03:36:19.839Z,97.35
2018-12-14T03:36:45.940Z,97.16
2018-12-14T03:37:12.084Z,97.35
2018-12-14T03:37:38.206Z,97.16
2018-12-14T03:38:04.312Z,98.11
2018-12-14T03:38:30.412Z,97.73
2018-12-14T03:38:56.521Z,97.16
2018-12-14T03:39:22.622Z,97.35
2018-12-14T03:39:48.725Z,97.63
2018-12-14T03:40:14.858Z,97.44
2018-12-14T03:40:40.984Z,97.35
2018-12-14T03:41:07.089Z,97.4
2018-12-14T03:41:33.187Z,97.63
2018-12-14T03:41:59.343Z,97.73
2018-12-14T03:42:25.450Z,97.16
2018-12-14T03:42:52.573Z,97.35
2018-12-14T03:43:18.677Z,97.35
2018-12-14T03:43:44.841Z,97.35
2018-12-14T03:44:11.020Z,97.16
2018-12-14T03:44:37.151Z,97.25
2018-12-14T03:45:03.266Z,97.16
2018-12-14T03:45:29.396Z,97.25
2018-12-14T03:45:55.522Z,97.35
2018-12-14T03:46:21.623Z,97.25
2018-12-14T03:46:47.725Z,97.44
2018-12-14T03:47:13.847Z,97.73
2018-12-14T03:47:40.005Z,97.54
2018-12-14T03:48:06.137Z,97.73
2018-12-14T03:48:32.271Z,97.73
2018-12-14T03:48:58.400Z,98.2
2018-12-14T03:49:24.504Z,98.11
2018-12-14T03:49:50.601Z,98.3
2018-12-14T03:50:16.709Z,98.01
2018-12-14T03:50:42.812Z,97.82
2018-12-14T03:51:08.948Z,98.39
2018-12-14T03:51:35.046Z,98.49
2018-12-14T03:52:01.161Z,98.3
2018-12-14T03:52:27.257Z,98.58
2018-12-14T03:52:53.476Z,98.49
2018-12-14T03:53:19.572Z,98.58
2018-12-14T03:53:45.679Z,98.3
2018-12-14T03:54:11.788Z,98.39
2018-12-14T03:54:37.894Z,98.3
2018-12-14T03:55:03.997Z,98.49
2018-12-14T03:55:30.101Z,98.11
2018-12-14T03:55:56.211Z,98.11
2018-12-14T03:56:22.324Z,98.01
2018-12-14T03:56:48.487Z,97.63
2018-12-14T03:57:14.653Z,97.92
2018-12-14T03:57:40.787Z,98.11
2018-12-14T03:58:06.944Z,98.01
2018-12-14T03:58:33.046Z,98.3
2018-12-14T03:58:59.152Z,98.39
2018-12-14T03:59:25.284Z,98.68
2018-12-14T03:59:51.410Z,98.49
2018-12-14T04:00:17.545Z,98.2
2018-12-14T04:00:43.650Z,98.68
2018-12-14T04:01:09.748Z,98.68
2018-12-14T04:01:35.881Z,98.49
2018-12-14T04:02:01.985Z,98.2
2018-12-14T04:02:28.088Z,98.3
2018-12-14T04:02:54.221Z,98.2
2018-12-14T04:03:20.328Z,98.58
2018-12-14T04:03:46.426Z,98.68
2018-12-14T04:04:12.560Z,98.35
2018-12-14T04:04:38.686Z,98.35
2018-12-14T04:05:04.793Z,98.39
2018-12-14T04:05:30.901Z,98.91
2018-12-14T04:05:57.006Z,98.49
2018-12-14T04:06:23.114Z,98.63
2018-12-14T04:06:49.214Z,98.58
2018-12-14T04:07:15.325Z,98.54
2018-12-14T04:07:41.432Z,98.63
2018-12-14T04:08:07.560Z,98.44
2018-12-14T04:08:33.687Z,98.35
2018-12-14T04:08:59.793Z,97.97
2018-12-14T04:09:25.903Z,97.97
2018-12-14T04:09:52.034Z,97.4
2018-12-14T04:10:18.140Z,97.49
2018-12-14T04:10:44.274Z,97.78
2018-12-14T04:11:10.382Z,97.21
2018-12-14T04:11:36.483Z,97.49
2018-12-14T04:12:02.580Z,97.68
2018-12-14T04:12:28.693Z,97.4
2018-12-14T04:12:56.771Z,97.97
2018-12-14T04:13:22.878Z,97.87
2018-12-14T04:13:49.005Z,97.78
2018-12-14T04:14:15.137Z,98.16
2018-12-14T04:14:41.243Z,97.21
2018-12-14T04:15:07.345Z,97.4
2018-12-14T04:15:33.475Z,97.4
2018-12-14T04:15:59.604Z,97.78
2018-12-14T04:16:25.710Z,97.4
2018-12-14T04:16:51.819Z,97.59
2018-12-14T04:17:17.916Z,97.78
2018-12-14T04:17:44.042Z,97.4
2018-12-14T04:18:10.148Z,98.06
2018-12-14T04:18:36.274Z,97.3
2018-12-14T04:19:02.386Z,97.4
2018-12-14T04:19:28.525Z,97.21
2018-12-14T04:19:54.647Z,97.11
2018-12-14T04:20:20.782Z,97.21
2018-12-14T04:20:46.890Z,97.4
2018-12-14T04:21:13.018Z,97.21
2018-12-14T04:21:39.123Z,97.4
2018-12-14T04:22:05.287Z,97.02
2018-12-14T04:22:31.417Z,97.21
2018-12-14T04:22:57.559Z,97.3
2018-12-14T04:23:23.659Z,97.3
2018-12-14T04:23:49.778Z,96.92
2018-12-14T04:24:15.912Z,97.3
2018-12-14T04:24:42.018Z,96.83
2018-12-14T04:25:08.160Z,96.55
2018-12-14T04:25:34.287Z,96.26
2018-12-14T04:26:00.389Z,96.45
2018-12-14T04:26:26.554Z,95.88
2018-12-14T04:26:52.696Z,95.88
2018-12-14T04:27:18.853Z,96.59
2018-12-14T04:27:44.961Z,96.4
2018-12-14T04:28:11.093Z,96.69
2018-12-14T04:28:37.229Z,96.31
2018-12-14T04:29:03.325Z,96.78
2018-12-14T04:29:29.434Z,96.97
2018-12-14T04:29:55.575Z,97.06
2018-12-14T04:30:21.676Z,96.78
2018-12-14T04:30:47.779Z,96.78
2018-12-14T04:31:13.880Z,96.59
2018-12-14T04:31:39.993Z,97.16
2018-12-14T04:32:06.156Z,97.63
2018-12-14T04:32:32.294Z,97.25
2018-12-14T04:32:58.391Z,96.78
2018-12-14T04:33:24.502Z,96.78
2018-12-14T04:33:50.601Z,96.97
2018-12-14T04:34:16.703Z,97.63
2018-12-14T04:34:42.842Z,96.78
2018-12-14T04:35:08.975Z,97.25
2018-12-14T04:35:35.071Z,97.44
2018-12-14T04:36:01.206Z,97.35
2018-12-14T04:36:27.298Z,97.35
2018-12-14T04:36:53.405Z,97.54
2018-12-14T04:37:19.509Z,97.73
2018-12-14T04:37:45.639Z,97.92
2018-12-14T04:38:11.739Z,97.82
2018-12-14T04:38:37.858Z,97.73
2018-12-14T04:39:03.965Z,97.92
2018-12-14T04:39:31.191Z,97.82
2018-12-14T04:39:57.196Z,97.92
2018-12-14T04:40:23.309Z,98.58
2018-12-14T04:40:49.403Z,98.11
2018-12-14T04:41:15.511Z,98.49
2018-12-14T04:41:41.639Z,98.49
2018-12-14T04:42:07.742Z,97.63
2018-12-14T04:42:33.850Z,98.11
2018-12-14T04:43:00.938Z,97.73
2018-12-14T04:43:27.044Z,98.39
2018-12-14T04:43:53.148Z,98.58
2018-12-14T04:44:19.251Z,98.49
2018-12-14T04:44:45.380Z,98.68
2018-12-14T04:45:11.487Z,98.68
2018-12-14T04:45:37.599Z,98.2
2018-12-14T04:46:03.699Z,98.39
2018-12-14T04:46:29.809Z,98.49
2018-12-14T04:46:55.908Z,98.58
2018-12-14T04:47:22.034Z,98.58
2018-12-14T04:47:48.174Z,98.49
2018-12-14T04:48:14.314Z,98.11
2018-12-14T04:48:40.416Z,98.11
2018-12-14T04:49:06.518Z,98.01
2018-12-14T04:49:32.642Z,97.82
2018-12-14T04:49:58.816Z,98.58
2018-12-14T04:50:25.965Z,98.49
2018-12-14T04:50:52.099Z,98.3
2018-12-14T04:51:18.198Z,98.49
2018-12-14T04:51:44.307Z,98.39
2018-12-14T04:52:10.456Z,98.39
2018-12-14T04:52:36.553Z,98.3
2018-12-14T04:53:02.655Z,98.39
2018-12-14T04:53:28.788Z,98.2
2018-12-14T04:53:54.890Z,98.49
2018-12-14T04:54:20.995Z,98.39
2018-12-14T04:54:47.096Z,98.3
2018-12-14T04:55:13.192Z,98.3
2018-12-14T04:55:39.321Z,98.58
2018-12-14T04:56:05.425Z,98.3
2018-12-14T04:56:31.583Z,98.68
2018-12-14T04:56:57.660Z,98.58
2018-12-14T04:57:23.768Z,98.86
2018-12-14T04:57:49.875Z,98.68
2018-12-14T04:58:16.062Z,98.58
2018-12-14T04:58:42.199Z,98.49
2018-12-14T04:59:08.297Z,98.77
2018-12-14T04:59:34.399Z,98.49
2018-12-14T05:00:00.531Z,98.3
2018-12-14T05:00:26.654Z,98.39
2018-12-14T05:00:52.762Z,98.49
2018-12-14T05:01:18.871Z,98.3
2018-12-14T05:01:45.031Z,98.39
2018-12-14T05:02:11.187Z,98.49
2018-12-14T05:02:37.291Z,98.3
2018-12-14T05:03:03.398Z,98.3
2018-12-14T05:03:29.493Z,98.3
2018-12-14T05:03:55.639Z,98.39
2018-12-14T05:04:21.803Z,97.82
2018-12-14T05:04:47.949Z,97.73
2018-12-14T05:05:14.032Z,97.92
2018-12-14T05:05:40.137Z,97.35
2018-12-14T05:06:06.266Z,97.73
2018-12-14T05:06:32.368Z,97.73
2018-12-14T05:06:58.472Z,98.11
2018-12-14T05:07:24.582Z,98.11
2018-12-14T05:07:50.704Z,97.25
2018-12-14T05:08:16.815Z,97.25
2018-12-14T05:08:42.944Z,97.35
2018-12-14T05:09:09.038Z,97.54
2018-12-14T05:09:35.143Z,97.73
2018-12-14T05:10:01.303Z,97.82
2018-12-14T05:10:27.434Z,97.92
2018-12-14T05:10:53.535Z,98.2
2018-12-14T05:11:19.647Z,98.49
2018-12-14T05:11:45.776Z,98.68
2018-12-14T05:12:11.947Z,98.49
2018-12-14T05:12:38.052Z,98.86
2018-12-14T05:13:04.211Z,98.3
2018-12-14T05:13:30.339Z,98.39
2018-12-14T05:13:56.441Z,98.68
2018-12-14T05:14:22.572Z,98.58
2018-12-14T05:14:48.700Z,98.39
2018-12-14T05:15:14.832Z,98.72
2018-12-14T05:15:40.940Z,98.54
2018-12-14T05:16:07.061Z,98.82
2018-12-14T05:16:33.162Z,98.68
2018-12-14T05:16:59.303Z,98.35
2018-12-14T05:17:25.432Z,98.35
2018-12-14T05:17:51.542Z,98.63
2018-12-14T05:18:17.672Z,98.54
2018-12-14T05:18:43.780Z,98.63
2018-12-14T05:19:09.885Z,97.87
2018-12-14T05:19:35.993Z,97.97
2018-12-14T05:20:02.114Z,97.97
2018-12-14T05:20:28.222Z,97.97
2018-12-14T05:20:54.324Z,97.78
2018-12-14T05:21:20.488Z,98.06
2018-12-14T05:21:46.593Z,97.87
2018-12-14T05:22:12.697Z,97.4
2018-12-14T05:22:38.799Z,97.4
2018-12-14T05:23:04.896Z,97.11
2018-12-14T05:23:31.032Z,97.4
2018-12-14T05:23:57.134Z,97.4
2018-12-14T05:24:23.239Z,97.21
2018-12-14T05:24:49.341Z,97.11
2018-12-14T05:25:15.451Z,97.02
2018-12-14T05:25:41.558Z,97.02
2018-12-14T05:26:07.660Z,97.11
2018-12-14T05:26:34.249Z,97.11
2018-12-14T05:27:00.359Z,97.16
2018-12-14T05:27:26.445Z,96.64
2018-12-14T05:27:52.561Z,96.78
2018-12-14T05:28:18.652Z,96.69
2018-12-14T05:28:44.739Z,96.4
2018-12-14T05:29:10.830Z,96.69
2018-12-14T05:29:36.944Z,96.4
2018-12-14T05:30:03.034Z,96.69
2018-12-14T05:30:29.122Z,96.69
2018-12-14T05:30:55.218Z,96.78
2018-12-14T05:31:21.333Z,96.97
2018-12-14T05:31:47.438Z,96.97
2018-12-14T05:32:13.545Z,97.25
2018-12-14T05:32:39.649Z,97.25
2018-12-14T05:33:05.752Z,97.35
2018-12-14T05:33:31.849Z,97.44
2018-12-14T05:33:57.965Z,97.92
2018-12-14T05:34:24.103Z,97.73
2018-12-14T05:34:50.204Z,97.92
2018-12-14T05:35:16.318Z,97.82
2018-12-14T05:35:42.444Z,98.58
2018-12-14T05:36:08.545Z,98.86
2018-12-14T05:36:34.651Z,98.39
2018-12-14T05:37:00.802Z,98.77
2018-12-14T05:37:26.902Z,98.58
2018-12-14T05:37:53.037Z,98.39
2018-12-14T05:38:19.153Z,98.49